createdAt,value
2023-02-11T00:03:22.102Z,103815.25
2023-02-11T00:08:24.335Z,103810.03
2023-02-11T00:13:26.972Z,103810.91
2023-02-11T00:18:29.154Z,103794.16
2023-02-11T00:23:31.551Z,103801.19
2023-02-11T00:28:33.684Z,103800.28
2023-02-11T00:33:35.996Z,103792.38
2023-02-11T00:38:44.084Z,103772.25
2023-02-11T00:43:46.618Z,103785.34
2023-02-11T00:48:49.060Z,103767.78
2023-02-11T00:53:51.305Z,103780.09
2023-02-11T00:58:54.195Z,103778.31
2023-02-11T01:03:56.377Z,103761.63
2023-02-11T01:08:58.805Z,103756.44
2023-02-11T01:14:01.127Z,103755.63
2023-02-11T01:19:03.238Z,103750.34
2023-02-11T01:24:05.546Z,103744.13
2023-02-11T01:29:07.705Z,103744.13
2023-02-11T01:34:09.867Z,103745.00
2023-02-11T01:39:12.902Z,103742.38
2023-02-11T01:44:31.856Z,103722.16
2023-02-11T01:49:44.968Z,103728.31
2023-02-11T01:55:11.046Z,103713.38
2023-02-11T02:00:15.294Z,103698.47
2023-02-11T02:05:29.762Z,103702.84
2023-02-11T02:10:34.235Z,103672.19
2023-02-11T02:15:39.199Z,103686.19
2023-02-11T02:21:18.645Z,103683.59
2023-02-11T02:26:45.710Z,103685.41
2023-02-11T02:32:04.013Z,103679.25
2023-02-11T02:37:16.633Z,103676.56
2023-02-11T02:42:20.445Z,103677.44
2023-02-11T02:47:22.533Z,103672.16
2023-02-11T02:52:36.362Z,103661.63
2023-02-11T02:58:00.177Z,103659.00
2023-02-11T03:03:20.786Z,103655.47
2023-02-11T03:08:26.942Z,103653.72
2023-02-11T03:13:33.991Z,103644.94
2023-02-11T03:18:39.915Z,103651.97
2023-02-11T03:23:53.077Z,103657.25
2023-02-11T03:29:03.935Z,103654.69
2023-02-11T03:34:22.103Z,103655.63
2023-02-11T03:39:50.686Z,103649.44
2023-02-11T03:45:01.317Z,103645.03
2023-02-11T03:50:06.508Z,103643.28
2023-02-11T03:55:13.829Z,103644.13
2023-02-11T04:00:16.384Z,103648.50
2023-02-11T04:05:18.952Z,103654.66
2023-02-11T04:10:21.241Z,103649.41
2023-02-11T04:15:24.100Z,103646.75
2023-02-11T04:20:26.268Z,103655.56
2023-02-11T04:25:28.658Z,103654.69
2023-02-11T04:30:30.931Z,103652.94
2023-02-11T04:35:33.134Z,103653.88
2023-02-11T04:40:35.359Z,103642.44
2023-02-11T04:45:37.646Z,103649.47
2023-02-11T04:50:39.877Z,103654.75
2023-02-11T04:55:42.274Z,103648.59
2023-02-11T05:00:44.741Z,103648.66
2023-02-11T05:05:47.027Z,103652.09
2023-02-11T05:10:49.193Z,103660.00
2023-02-11T05:15:51.735Z,103645.06
2023-02-11T05:20:54.143Z,103660.03
2023-02-11T05:25:56.265Z,103645.97
2023-02-11T05:30:58.429Z,103649.47
2023-02-11T05:36:02.236Z,103643.31
2023-02-11T05:41:05.371Z,103651.22
2023-02-11T05:46:08.029Z,103652.13
2023-02-11T05:51:10.358Z,103645.06
2023-02-11T05:56:12.785Z,103650.34
2023-02-11T06:01:14.868Z,103653.03
2023-02-11T06:06:17.697Z,103649.53
2023-02-11T06:11:20.442Z,103643.31
2023-02-11T06:16:22.650Z,103645.97
2023-02-11T06:21:33.481Z,103655.63
2023-02-11T06:26:42.287Z,103644.19
2023-02-11T06:31:44.727Z,103642.44
2023-02-11T06:36:46.953Z,103642.44
2023-02-11T06:41:49.179Z,103629.34
2023-02-11T06:46:51.323Z,103640.69
2023-02-11T06:51:53.450Z,103645.06
2023-02-11T06:56:55.569Z,103643.31
2023-02-11T07:01:57.893Z,103641.56
2023-02-11T07:06:59.970Z,103646.91
2023-02-11T07:12:02.242Z,103653.94
2023-02-11T07:17:05.352Z,103650.44
2023-02-11T07:22:07.557Z,103650.41
2023-02-11T07:27:09.804Z,103659.19
2023-02-11T07:32:12.050Z,103656.56
2023-02-11T07:37:14.382Z,103663.56
2023-02-11T07:42:16.711Z,103663.56
2023-02-11T07:47:18.856Z,103663.56
2023-02-11T07:52:21.007Z,103663.56
2023-02-11T07:57:23.137Z,103672.31
2023-02-11T08:02:25.268Z,103674.09
2023-02-11T08:07:29.864Z,103669.69
2023-02-11T08:12:32.027Z,103666.19
2023-02-11T08:17:36.885Z,103671.50
2023-02-11T08:22:38.993Z,103681.22
2023-02-11T08:27:41.233Z,103676.84
2023-02-11T08:32:43.401Z,103684.69
2023-02-11T08:37:45.630Z,103682.91
2023-02-11T08:42:47.911Z,103669.75
2023-02-11T08:47:51.563Z,103686.41
2023-02-11T08:52:53.721Z,103684.66
2023-02-11T08:57:55.851Z,103676.75
2023-02-11T09:02:57.976Z,103676.75
2023-02-11T09:08:00.198Z,103675.88
2023-02-11T09:13:02.455Z,103674.13
2023-02-11T09:18:05.496Z,103675.91
2023-02-11T09:23:07.666Z,103677.72
2023-02-11T09:28:10.818Z,103680.34
2023-02-11T09:33:12.990Z,103671.56
2023-02-11T09:38:15.252Z,103691.78
2023-02-11T09:43:28.891Z,103686.50
2023-02-11T09:48:40.543Z,103695.22
2023-02-11T09:53:43.533Z,103694.31
2023-02-11T09:58:47.444Z,103696.09
2023-02-11T10:04:13.910Z,103705.75
2023-02-11T10:09:55.206Z,103704.88
2023-02-11T10:15:26.515Z,103707.50
2023-02-11T10:20:55.199Z,103711.91
2023-02-11T10:25:59.212Z,103709.25
2023-02-11T10:31:05.723Z,103711.00
2023-02-11T10:36:11.339Z,103722.44
2023-02-11T10:41:31.234Z,103722.50
2023-02-11T10:46:40.424Z,103719.81
2023-02-11T10:51:42.637Z,103706.63
2023-02-11T10:56:58.759Z,103702.22
2023-02-11T11:02:21.526Z,103707.50
2023-02-11T11:07:27.714Z,103698.72
2023-02-11T11:12:56.026Z,103698.66
2023-02-11T11:18:22.823Z,103691.69
2023-02-11T11:23:26.558Z,103686.41
2023-02-11T11:28:31.888Z,103689.88
2023-02-11T11:33:36.317Z,103677.59
2023-02-11T11:38:45.845Z,103676.69
2023-02-11T11:44:01.631Z,103663.56
2023-02-11T11:49:31.292Z,103660.97
2023-02-11T11:54:34.458Z,103657.44
2023-02-11T11:59:38.461Z,103662.72
2023-02-11T12:04:43.486Z,103650.41
2023-02-11T12:10:04.646Z,103642.50
2023-02-11T12:15:45.425Z,103638.94
2023-02-11T12:21:22.788Z,103631.03
2023-02-11T12:26:46.494Z,103631.03
2023-02-11T12:32:22.475Z,103624.94
2023-02-11T12:37:46.352Z,103619.69
2023-02-11T12:43:24.636Z,103603.88
2023-02-11T12:48:48.965Z,103599.50
2023-02-11T12:54:06.921Z,103597.72
2023-02-11T12:59:31.165Z,103595.91
2023-02-11T13:04:43.767Z,103583.59
2023-02-11T13:09:52.195Z,103576.56
2023-02-11T13:14:59.530Z,103564.25
2023-02-11T13:20:15.884Z,103553.00
2023-02-11T13:25:51.566Z,103566.91
2023-02-11T13:31:02.649Z,103559.88
2023-02-11T13:36:04.978Z,103555.50
2023-02-11T13:41:21.391Z,103552.03
2023-02-11T13:46:23.903Z,103543.38
2023-02-11T13:51:41.150Z,103558.19
2023-02-11T13:56:44.325Z,103552.03
2023-02-11T14:02:08.045Z,103551.09
2023-02-11T14:07:50.297Z,103555.50
2023-02-11T14:13:23.277Z,103550.19
2023-02-11T14:18:59.694Z,103544.94
2023-02-11T14:24:01.845Z,103540.53
2023-02-11T14:29:16.480Z,103543.16
2023-02-11T14:34:32.125Z,103532.66
2023-02-11T14:40:04.496Z,103542.31
2023-02-11T14:45:11.383Z,103536.16
2023-02-11T14:50:26.139Z,103529.19
2023-02-11T14:55:33.399Z,103527.38
2023-02-11T15:00:35.517Z,103531.78
2023-02-11T15:05:37.633Z,103526.50
2023-02-11T15:10:44.449Z,103528.31
2023-02-11T15:15:48.522Z,103521.22
2023-02-11T15:20:52.358Z,103519.47
2023-02-11T15:25:56.607Z,103523.84
2023-02-11T15:31:16.050Z,103522.09
2023-02-11T15:36:20.761Z,103520.28
2023-02-11T15:41:38.077Z,103522.97
2023-02-11T15:46:41.115Z,103517.66
2023-02-11T15:51:47.130Z,103508.03
2023-02-11T15:56:55.706Z,103508.03
2023-02-11T16:02:05.841Z,103503.66
2023-02-11T16:07:41.522Z,103504.53
2023-02-11T16:12:53.841Z,103501.91
2023-02-11T16:17:56.132Z,103501.03
2023-02-11T16:22:58.215Z,103502.78
2023-02-11T16:28:00.676Z,103505.34
2023-02-11T16:33:03.162Z,103500.06
2023-02-11T16:38:05.193Z,103507.09
2023-02-11T16:43:07.258Z,103483.47
2023-02-11T16:48:10.614Z,103504.44
2023-02-11T16:53:12.980Z,103519.41
2023-02-11T16:58:15.226Z,103507.13
2023-02-11T17:03:23.130Z,103514.13
2023-02-11T17:08:25.306Z,103510.69
2023-02-11T17:13:27.823Z,103514.19
2023-02-11T17:18:30.107Z,103508.06
2023-02-11T17:23:32.379Z,103518.53
2023-02-11T17:28:34.772Z,103516.78
2023-02-11T17:33:38.120Z,103514.13
2023-02-11T17:38:40.346Z,103522.91
2023-02-11T17:43:42.866Z,103526.44
2023-02-11T17:48:45.022Z,103544.88
2023-02-11T17:53:47.054Z,103539.59
2023-02-11T17:58:49.190Z,103537.84
2023-02-11T18:03:51.345Z,103544.88
2023-02-11T18:08:57.564Z,103554.53
2023-02-11T18:14:01.838Z,103551.03
2023-02-11T18:19:04.069Z,103560.75
2023-02-11T18:24:07.252Z,103557.25
2023-02-11T18:29:09.615Z,103567.78
2023-02-11T18:34:12.354Z,103563.38
2023-02-11T18:39:14.613Z,103551.16
2023-02-11T18:44:22.191Z,103573.00
2023-02-11T18:49:24.384Z,103569.47
2023-02-11T18:54:26.625Z,103563.31
2023-02-11T18:59:28.910Z,103571.22
2023-02-11T19:04:31.151Z,103568.59
2023-02-11T19:09:33.358Z,103569.47
2023-02-11T19:14:36.247Z,103565.97
2023-02-11T19:19:38.484Z,103573.00
2023-02-11T19:24:40.911Z,103575.63
2023-02-11T19:29:43.183Z,103572.16
2023-02-11T19:34:45.329Z,103578.31
2023-02-11T19:39:47.730Z,103575.63
2023-02-11T19:44:49.970Z,103567.72
2023-02-11T19:49:52.045Z,103568.59
2023-02-11T19:54:54.199Z,103563.31
2023-02-11T19:59:57.142Z,103565.09
2023-02-11T20:04:59.238Z,103565.09
2023-02-11T20:10:01.477Z,103545.84
2023-02-11T20:15:04.086Z,103562.44
2023-02-11T20:20:06.740Z,103563.31
2023-02-11T20:25:11.058Z,103563.31
2023-02-11T20:30:13.479Z,103558.94
2023-02-11T20:35:15.746Z,103560.75
2023-02-11T20:40:17.956Z,103556.34
2023-02-11T20:45:20.007Z,103553.72
2023-02-11T20:50:22.196Z,103552.84
2023-02-11T20:55:24.264Z,103548.41
2023-02-11T21:00:26.335Z,103548.41
2023-02-11T21:05:29.770Z,103534.47
2023-02-11T21:10:31.896Z,103548.41
2023-02-11T21:15:34.033Z,103548.41
2023-02-11T21:20:36.273Z,103554.53
2023-02-11T21:25:38.325Z,103553.66
2023-02-11T21:30:42.096Z,103561.63
2023-02-11T21:35:44.329Z,103551.97
2023-02-11T21:40:46.516Z,103561.63
2023-02-11T21:45:51.350Z,103557.25
2023-02-11T21:50:53.699Z,103557.25
2023-02-11T21:56:07.670Z,103555.47
2023-02-11T22:01:18.170Z,103553.69
2023-02-11T22:06:31.188Z,103550.22
2023-02-11T22:11:33.904Z,103553.69
2023-02-11T22:16:36.269Z,103556.31
2023-02-11T22:21:38.635Z,103550.16
2023-02-11T22:26:41.287Z,103562.47
2023-02-11T22:31:43.675Z,103549.34
2023-02-11T22:36:47.138Z,103555.50
2023-02-11T22:41:49.661Z,103552.91
2023-02-11T22:46:52.589Z,103562.53
2023-02-11T22:51:54.951Z,103566.91
2023-02-11T22:56:57.129Z,103545.94
2023-02-11T23:01:59.418Z,103566.88
2023-02-11T23:07:01.596Z,103573.94
2023-02-11T23:12:04.124Z,103567.78
2023-02-11T23:17:06.233Z,103573.06
2023-02-11T23:22:08.269Z,103576.56
2023-02-11T23:27:10.382Z,103576.56
2023-02-11T23:32:12.527Z,103573.94
2023-02-11T23:37:14.846Z,103568.66
2023-02-11T23:42:17.007Z,103580.94
2023-02-11T23:47:19.053Z,103578.38
2023-02-11T23:52:21.381Z,103572.25
2023-02-11T23:57:23.777Z,103572.25
